Time;durP1;ratioP1;P1;durP2;ratioP2;P2;SDS_P1;SDS_P2;PMS_P1;PMS_P2;Temp;Humidity;BMP_temperature;BMP_pressure;BME280_temperature;BME280_humidity;BME280_pressure;Samples;Min_cycle;Max_cycle;Signal;HPM_P1;HPM_P2
2022/12/27 00:01:41;;;;;;;26.30;18.05;;;;;;;3.83;100.00;101164.78;5058154;28;20045;-78
2022/12/27 00:04:06;;;;;;;26.05;18.63;;;;;;;3.85;100.00;101150.16;5059763;28;20400;-78
2022/12/27 00:06:32;;;;;;;28.63;16.55;;;;;;;3.81;100.00;101157.81;5059464;28;20021;-77
2022/12/27 00:08:57;;;;;;;23.60;17.70;;;;;;;3.62;100.00;101134.56;5058113;28;20056;-77
2022/12/27 00:11:26;;;;;;;27.85;19.73;;;;;;;4.46;100.00;101281.53;5059628;28;20119;-77
2022/12/27 00:13:51;;;;;;;29.80;17.13;;;;;;;4.51;100.00;101278.25;5057433;28;20064;-78
2022/12/27 00:16:19;;;;;;;27.40;16.67;;;;;;;4.39;100.00;101270.88;5060528;28;20045;-79
2022/12/27 00:18:45;;;;;;;26.92;17.10;;;;;;;4.37;100.00;101259.53;5059331;28;20169;-77
2022/12/27 00:21:12;;;;;;;28.48;19.15;;;;;;;3.78;100.00;101136.06;5058089;28;20032;-78
2022/12/27 00:23:43;;;;;;;26.17;19.13;;;;;;;4.30;100.00;101230.66;5059147;28;20053;-78
2022/12/27 00:26:14;;;;;;;34.45;19.20;;;;;;;4.26;100.00;101249.56;5056611;28;20048;-78
2022/12/27 00:28:40;;;;;;;20.98;17.70;;;;;;;3.43;100.00;101099.22;5057659;28;20048;-78
2022/12/27 00:31:06;;;;;;;25.23;17.83;;;;;;;4.11;100.00;101226.47;5059910;28;20087;-78
2022/12/27 00:33:34;;;;;;;26.15;18.08;;;;;;;3.64;100.00;101184.81;5055497;28;20400;-77
2022/12/27 00:36:03;;;;;;;27.20;18.30;;;;;;;3.93;100.00;101229.22;5059339;28;20070;-78
2022/12/27 00:38:30;;;;;;;28.92;19.90;;;;;;;3.98;100.00;101235.47;5040703;28;20063;-76
2022/12/27 00:40:55;;;;;;;30.42;19.65;;;;;;;3.02;100.00;101090.66;5037516;28;20124;-75
2022/12/27 00:43:21;;;;;;;30.15;20.73;;;;;;;3.98;100.00;101269.22;5038218;28;20072;-76
2022/12/27 00:45:47;;;;;;;27.02;17.95;;;;;;;3.75;100.00;101244.97;5037109;28;20048;-76
2022/12/27 00:48:12;;;;;;;33.58;18.85;;;;;;;3.00;100.00;101143.22;5042143;28;20833;-76
2022/12/27 00:50:39;;;;;;;38.15;20.58;;;;;;;3.11;100.00;101140.31;5036495;28;20034;-76
2022/12/27 00:53:05;;;;;;;28.52;20.30;;;;;;;3.96;100.00;101276.97;5038966;28;20057;-78
2022/12/27 00:55:31;;;;;;;29.63;18.60;;;;;;;3.65;100.00;101237.59;5035019;28;20512;-78
2022/12/27 00:57:56;;;;;;;26.83;17.48;;;;;;;3.48;100.00;101221.34;5036549;28;20084;-78
2022/12/27 01:00:22;;;;;;;35.58;21.63;;;;;;;3.22;100.00;101147.63;5036919;28;20115;-78
2022/12/27 01:02:47;;;;;;;34.38;19.42;;;;;;;3.50;100.00;101235.25;5057941;28;20048;-78
2022/12/27 01:05:13;;;;;;;30.17;17.55;;;;;;;3.28;100.00;101223.09;5056201;28;20554;-76
2022/12/27 01:07:38;;;;;;;32.05;19.95;;;;;;;3.30;100.00;101224.94;5058495;28;20033;-78
2022/12/27 01:10:04;;;;;;;28.90;18.20;;;;;;;3.17;100.00;101215.72;5055503;28;20144;-76
2022/12/27 01:12:30;;;;;;;32.70;19.35;;;;;;;3.35;100.00;101244.19;5057354;28;20064;-76
2022/12/27 01:14:55;;;;;;;28.42;17.92;;;;;;;2.31;100.00;101104.84;5058980;28;20063;-78
2022/12/27 01:17:21;;;;;;;29.13;17.85;;;;;;;2.48;100.00;101100.41;5058143;28;20041;-76
2022/12/27 01:19:46;;;;;;;29.05;16.60;;;;;;;3.11;100.00;101230.13;5058800;28;20048;-76
2022/12/27 01:22:11;;;;;;;24.55;17.00;;;;;;;3.20;100.00;101238.31;5058904;28;20044;-77
2022/12/27 01:24:37;;;;;;;28.85;16.65;;;;;;;2.05;100.00;101080.41;5055995;28;20620;-76
2022/12/27 01:27:02;;;;;;;29.83;16.58;;;;;;;3.13;100.00;101234.56;5056188;28;20495;-77
2022/12/27 01:29:28;;;;;;;26.33;16.75;;;;;;;2.05;100.00;101073.50;5058049;28;20495;-77
2022/12/27 01:31:53;;;;;;;29.75;18.15;;;;;;;2.66;100.00;101152.16;5055852;28;20492;-76
2022/12/27 01:34:19;;;;;;;27.95;17.50;;;;;;;2.50;100.00;101110.03;5055663;28;20044;-76
2022/12/27 01:36:44;;;;;;;28.25;17.95;;;;;;;2.62;100.00;101113.97;5058054;28;20048;-76
2022/12/27 01:39:11;;;;;;;28.98;19.30;;;;;;;2.92;100.00;101186.97;5058023;28;20044;-76
2022/12/27 01:44:41;;;;;;;31.95;18.15;;;;;;;3.12;100.00;101213.78;5057822;28;20423;-78
2022/12/27 01:47:16;;;;;;;23.23;17.10;;;;;;;3.24;100.00;101211.69;5037680;28;20128;-78
2022/12/27 01:49:51;;;;;;;24.70;16.70;;;;;;;2.49;100.00;101097.03;5046696;28;20775;-78
2022/12/27 01:52:16;;;;;;;27.83;17.90;;;;;;;2.41;100.00;101094.09;5055678;28;20068;-77
2022/12/27 01:54:42;;;;;;;28.83;16.70;;;;;;;3.03;100.00;101195.22;5057189;28;20048;-76
2022/12/27 01:57:09;;;;;;;31.20;18.42;;;;;;;2.95;100.00;101171.56;5056232;28;20389;-76
2022/12/27 01:59:35;;;;;;;33.85;17.50;;;;;;;2.93;100.00;101174.09;5036772;28;20124;-77
2022/12/27 02:02:02;;;;;;;29.40;19.85;;;;;;;2.39;100.00;101110.38;5036250;28;20089;-76
2022/12/27 02:04:29;;;;;;;29.00;19.48;;;;;;;2.32;100.00;101054.88;5037616;28;20053;-76
2022/12/27 02:06:55;;;;;;;25.02;17.85;;;;;;;2.92;100.00;101181.78;5035573;28;20053;-77
2022/12/27 02:09:38;;;;;;;27.95;18.25;;;;;;;3.12;100.00;101204.28;5035864;28;20059;-76
2022/12/27 02:12:06;;;;;;;28.92;17.95;;;;;;;2.82;100.00;101177.91;5038900;28;20050;-77
2022/12/27 02:14:34;;;;;;;26.95;17.45;;;;;;;3.04;100.00;101209.94;5043581;28;20053;-77
2022/12/27 02:17:08;;;;;;;29.50;17.40;;;;;;;2.96;100.00;101194.06;5046345;28;20194;-77
2022/12/27 02:19:33;;;;;;;31.13;16.02;;;;;;;3.11;100.00;101212.00;5043965;28;20045;-76
2022/12/27 02:22:28;;;;;;;28.92;18.20;;;;;;;3.17;100.00;101210.53;5044658;28;20873;-76
2022/12/27 02:25:00;;;;;;;25.70;17.20;;;;;;;3.15;100.00;101219.09;5014594;28;20049;-77
2022/12/27 02:28:00;;;;;;;27.83;16.75;;;;;;;3.10;100.00;101182.59;5045072;28;20032;-78
2022/12/27 02:30:29;;;;;;;24.23;17.70;;;;;;;3.02;100.00;101191.75;5047867;28;20420;-76
2022/12/27 02:33:06;;;;;;;33.30;18.70;;;;;;;3.08;100.00;101185.94;5050764;28;20025;-77
2022/12/27 02:35:40;;;;;;;31.10;15.88;;;;;;;2.41;100.00;101080.25;5050111;28;20092;-76
2022/12/27 02:38:11;;;;;;;39.33;19.33;;;;;;;3.12;100.00;101203.41;5047618;28;20563;-77
2022/12/27 02:57:07;;;;;;;33.80;21.48;;;;;;;3.10;100.00;101202.44;5048144;28;20056;-76
2022/12/27 02:59:03;;;;;;;26.30;17.80;;;;;;;3.11;100.00;101184.38;5046104;28;20067;-76
2022/12/27 03:04:52;;;;;;;25.48;16.55;;;;;;;3.14;100.00;101183.63;5048572;28;20067;-76
2022/12/27 03:07:58;;;;;;;29.30;18.95;;;;;;;2.52;100.00;101082.50;5046667;28;20511;-77
2022/12/27 03:16:24;;;;;;;25.75;16.60;;;;;;;2.90;100.00;101152.31;5047537;28;20465;-76
2022/12/27 03:18:55;;;;;;;34.78;19.63;;;;;;;2.30;100.00;101036.66;5049467;28;20037;-78
2022/12/27 03:27:03;;;;;;;32.55;18.45;;;;;;;3.09;100.00;101187.69;5058762;28;20059;-78
2022/12/27 03:35:16;;;;;;;32.50;20.95;;;;;;;2.92;100.00;101163.66;5059584;28;20157;-77
2022/12/27 03:38:04;;;;;;;29.80;20.45;;;;;;;3.05;100.00;101186.69;5056377;28;20105;-77
2022/12/27 03:43:09;;;;;;;29.65;18.08;;;;;;;3.05;100.00;101175.44;5057681;28;20048;-77
2022/12/27 03:43:27;;;;;;;31.88;19.30;;;;;;;2.96;100.00;101171.63;5059009;28;20053;-77
2022/12/27 03:49:09;;;;;;;32.67;19.02;;;;;;;3.11;100.00;101175.69;5057545;28;20585;-77
2022/12/27 03:51:43;;;;;;;28.48;19.10;;;;;;;3.02;100.00;101173.63;5057195;28;20626;-77
2022/12/27 03:54:25;;;;;;;35.53;19.58;;;;;;;2.95;100.00;101169.00;5059705;28;20036;-77
2022/12/27 03:57:00;;;;;;;33.90;22.13;;;;;;;2.05;100.00;101026.03;5057766;28;20491;-76
2022/12/27 03:59:26;;;;;;;37.05;23.42;;;;;;;2.37;100.00;101070.59;5058482;28;20094;-79
2022/12/27 04:01:52;;;;;;;33.42;19.60;;;;;;;2.22;100.00;101053.53;5059007;28;20041;-77
2022/12/27 04:04:17;;;;;;;31.38;20.25;;;;;;;1.60;100.00;100935.22;5061546;28;20652;-76
2022/12/27 04:06:42;;;;;;;39.22;19.95;;;;;;;2.17;100.00;101028.28;5057425;28;20572;-76
2022/12/27 04:36:32;;;;;;;26.85;19.15;;;;;;;3.42;100.00;101156.22;5046793;28;20125;-77
2022/12/27 04:38:58;;;;;;;25.92;16.90;;;;;;;2.61;100.00;101019.81;5048563;28;20719;-76
2022/12/27 04:55:27;;;;;;;31.45;18.55;;;;;;;3.13;100.00;101071.22;5043421;28;20055;-77
2022/12/27 04:57:54;;;;;;;38.97;21.65;;;;;;;3.11;100.00;101066.78;5043715;28;20131;-76
2022/12/27 05:03:10;;;;;;;40.60;21.30;;;;;;;3.33;100.00;101100.56;5060057;28;20046;-77
2022/12/27 05:05:37;;;;;;;34.17;18.48;;;;;;;2.87;100.00;101032.97;5055690;28;20045;-77
2022/12/27 05:16:17;;;;;;;32.05;20.52;;;;;;;2.87;100.00;101058.91;5055555;28;20049;-77
2022/12/27 05:18:43;;;;;;;35.65;22.05;;;;;;;3.50;100.00;101147.94;5055346;28;20070;-76
2022/12/27 05:21:08;;;;;;;33.90;21.83;;;;;;;3.28;100.00;101125.44;5071284;28;20036;-76
2022/12/27 05:26:26;;;;;;;28.67;19.80;;;;;;;2.71;100.00;101023.69;5056127;28;20109;-77
2022/12/27 05:28:54;;;;;;;44.45;22.58;;;;;;;3.11;100.00;101096.22;5055981;28;20045;-76
2022/12/27 05:31:21;;;;;;;30.85;21.15;;;;;;;2.87;100.00;101052.00;5054013;28;20049;-77
2022/12/27 05:33:48;;;;;;;39.33;22.58;;;;;;;3.42;100.00;101156.22;5057657;28;20048;-76
2022/12/27 05:36:13;;;;;;;38.67;20.00;;;;;;;3.25;100.00;101119.22;5056551;28;20036;-78
2022/12/27 05:38:39;;;;;;;51.45;23.30;;;;;;;3.20;100.00;101138.91;5071399;28;20068;-77
2022/12/27 05:41:05;;;;;;;43.03;22.95;;;;;;;3.22;100.00;101137.25;5058456;28;20052;-77
2022/12/27 05:43:31;;;;;;;32.00;21.55;;;;;;;3.14;100.00;101140.41;5058015;28;20044;-76
2022/12/27 05:46:05;;;;;;;34.08;20.42;;;;;;;2.24;100.00;101000.13;5051481;28;20511;-78
2022/12/27 05:48:32;;;;;;;27.25;18.48;;;;;;;3.20;100.00;101154.44;5036778;28;20059;-76
2022/12/27 05:50:57;;;;;;;38.85;22.60;;;;;;;2.44;100.00;101047.63;5038074;28;20037;-76
2022/12/27 05:53:22;;;;;;;25.90;20.70;;;;;;;3.06;100.00;101134.00;5035189;28;20048;-77
2022/12/27 05:55:56;;;;;;;35.78;21.40;;;;;;;3.09;100.00;101125.47;5037670;28;20709;-77
2022/12/27 05:58:22;;;;;;;29.63;19.30;;;;;;;2.96;100.00;101134.47;5035515;28;20163;-77
2022/12/27 06:00:48;;;;;;;51.40;24.45;;;;;;;2.88;100.00;101122.84;5037625;28;20051;-77
2022/12/27 06:03:13;;;;;;;36.60;22.52;;;;;;;3.06;100.00;101125.34;5036067;28;20037;-77
2022/12/27 06:05:39;;;;;;;32.83;22.60;;;;;;;3.14;100.00;101132.63;5037006;28;20033;-77
2022/12/27 06:08:04;;;;;;;36.35;22.60;;;;;;;2.91;100.00;101115.25;5035293;28;20045;-77
2022/12/27 06:10:30;;;;;;;36.38;23.40;;;;;;;3.06;100.00;101130.53;5034911;28;20049;-77
2022/12/27 06:12:58;;;;;;;34.33;18.83;;;;;;;2.53;100.00;101042.81;5037433;28;20501;-77
2022/12/27 06:15:24;;;;;;;31.83;21.05;;;;;;;3.20;100.00;101134.59;5035019;28;20045;-78
2022/12/27 06:17:49;;;;;;;34.80;21.52;;;;;;;2.89;100.00;101070.22;5035460;28;20037;-76
2022/12/27 06:20:15;;;;;;;39.17;22.52;;;;;;;2.27;100.00;101005.47;5037055;28;20409;-77
2022/12/27 06:22:41;;;;;;;32.63;20.65;;;;;;;2.94;100.00;101107.56;5035456;28;20053;-78
2022/12/27 06:25:06;;;;;;;44.58;26.63;;;;;;;3.01;100.00;101083.69;5038060;28;20102;-78
2022/12/27 06:27:33;;;;;;;32.83;19.90;;;;;;;3.22;100.00;101114.78;5036481;28;20561;-77
2022/12/27 06:29:58;;;;;;;29.17;18.95;;;;;;;2.40;100.00;100968.00;5036747;28;20044;-78
2022/12/27 06:32:24;;;;;;;32.33;21.10;;;;;;;3.10;100.00;101054.66;5035347;28;20045;-78
2022/12/27 06:34:49;;;;;;;30.90;23.75;;;;;;;3.53;100.00;101121.22;5034178;28;20049;-76
2022/12/27 06:37:15;;;;;;;32.72;20.73;;;;;;;3.52;100.00;101106.50;5033781;28;20056;-76
2022/12/27 06:39:40;;;;;;;36.38;20.58;;;;;;;3.51;100.00;101107.28;5035251;28;20397;-76
2022/12/27 06:42:06;;;;;;;33.97;22.50;;;;;;;2.81;100.00;100976.63;5035483;28;20447;-77
2022/12/27 06:44:31;;;;;;;31.73;20.15;;;;;;;2.43;100.00;100887.84;5037163;28;20041;-78
2022/12/27 06:46:57;;;;;;;30.65;20.48;;;;;;;3.91;100.00;101127.00;5038788;28;20049;-77
2022/12/27 06:49:23;;;;;;;41.13;22.85;;;;;;;3.74;100.00;101098.69;5036404;28;20566;-75
2022/12/27 06:51:48;;;;;;;32.47;20.40;;;;;;;3.42;100.00;101019.63;5032502;28;20152;-76
2022/12/27 06:54:14;;;;;;;32.28;20.58;;;;;;;3.76;100.00;101085.78;5038598;28;20041;-77
2022/12/27 06:56:40;;;;;;;29.45;21.25;;;;;;;4.10;100.00;101119.13;5037473;28;20499;-77
2022/12/27 06:59:05;;;;;;;39.28;20.13;;;;;;;3.67;100.00;101038.72;5051506;28;20048;-77
2022/12/27 07:01:31;;;;;;;29.63;18.10;;;;;;;3.97;100.00;101064.94;5057400;28;20558;-75
2022/12/27 07:03:59;;;;;;;34.70;20.77;;;;;;;4.26;100.00;101110.19;5057035;28;20167;-76
2022/12/27 07:06:28;;;;;;;29.80;20.00;;;;;;;4.25;100.00;101079.84;5058262;28;20040;-78
2022/12/27 07:08:53;;;;;;;42.75;20.25;;;;;;;3.72;100.00;100977.50;5055132;28;20043;-78
2022/12/27 07:11:20;;;;;;;33.00;22.95;;;;;;;3.54;100.00;100933.59;5038066;28;20053;-83
2022/12/27 07:13:48;;;;;;;31.55;20.05;;;;;;;3.25;100.00;100883.22;5044032;28;20169;-82
2022/12/27 07:16:16;;;;;;;33.67;22.48;;;;;;;4.34;100.00;101050.72;5057809;28;20128;-80
2022/12/27 07:18:42;;;;;;;31.45;21.13;;;;;;;4.59;100.00;101086.25;5055258;28;20111;-79
2022/12/27 07:21:16;;;;;;;35.63;21.35;;;;;;;4.62;100.00;101079.44;5063431;28;20043;-81
2022/12/27 07:23:42;;;;;;;32.22;21.85;;;;;;;3.94;100.00;100959.28;5059077;28;20048;-80
2022/12/27 07:26:13;;;;;;;37.40;21.67;;;;;;;4.59;100.00;101078.47;5064099;28;20041;-78
2022/12/27 07:28:40;;;;;;;38.47;24.70;;;;;;;4.39;100.00;101082.94;5056306;28;20048;-79
2022/12/27 07:31:14;;;;;;;32.63;22.88;;;;;;;4.75;100.00;101096.34;5057770;28;20087;-82
2022/12/27 07:33:40;;;;;;;38.47;24.10;;;;;;;4.49;100.00;101055.56;5062705;28;20080;-81
2022/12/27 07:36:08;;;;;;;35.28;22.70;;;;;;;4.95;100.00;101104.81;5063712;28;20037;-80
2022/12/27 07:38:34;;;;;;;32.83;24.42;;;;;;;4.36;100.00;101003.16;5059879;28;20048;-83
2022/12/27 07:41:00;;;;;;;41.05;22.60;;;;;;;4.25;100.00;100998.44;5061415;28;20074;-84
2022/12/27 07:43:33;;;;;;;39.80;25.63;;;;;;;4.35;100.00;100995.31;5061264;28;20127;-80
2022/12/27 07:46:07;;;;;;;39.80;28.00;;;;;;;4.92;100.00;101107.31;5059952;28;20057;-81
2022/12/27 07:48:33;;;;;;;38.35;24.90;;;;;;;4.22;100.00;100989.69;5075156;28;20548;-81
2022/12/27 07:50:59;;;;;;;45.17;29.15;;;;;;;4.86;100.00;101079.38;5075116;28;20040;-81
2022/12/27 07:53:24;;;;;;;43.95;27.90;;;;;;;4.55;100.00;100999.47;5059617;28;20056;-84
2022/12/27 07:55:50;;;;;;;42.25;27.40;;;;;;;4.80;100.00;101054.88;5060289;28;20074;-83
2022/12/27 07:58:17;;;;;;;44.60;26.42;;;;;;;5.17;100.00;101109.00;5060919;28;20045;-85
2022/12/27 08:00:45;;;;;;;36.40;24.27;;;;;;;4.35;100.00;100992.72;5057608;28;20033;-79
2022/12/27 08:03:11;;;;;;;37.50;25.77;;;;;;;4.87;100.00;101106.28;5057279;28;20033;-85
2022/12/27 08:05:36;;;;;;;52.60;28.08;;;;;;;5.03;100.00;101100.78;5054315;28;20060;-81
2022/12/27 08:08:03;;;;;;;43.00;27.40;;;;;;;4.35;100.00;100939.03;5055858;28;20041;-82
2022/12/27 08:10:28;;;;;;;39.83;26.08;;;;;;;4.93;100.00;101049.25;5057842;28;20765;-83
2022/12/27 08:12:54;;;;;;;39.47;25.90;;;;;;;5.20;100.00;101051.03;5057855;28;20140;-81
2022/12/27 08:15:20;;;;;;;43.33;26.30;;;;;;;4.66;100.00;100947.88;5055985;28;20040;-83
2022/12/27 08:17:45;;;;;;;44.92;29.60;;;;;;;5.28;100.00;101111.97;5060685;28;20075;-82
2022/12/27 08:20:14;;;;;;;39.67;28.02;;;;;;;5.53;100.00;101099.75;5055706;28;20049;-89
2022/12/27 08:22:39;;;;;;;39.72;27.15;;;;;;;4.97;100.00;100977.44;5061800;28;20544;-86
2022/12/27 08:25:05;;;;;;;41.75;24.80;;;;;;;5.67;100.00;101096.75;5062518;28;20063;-80
2022/12/27 08:27:31;;;;;;;38.65;28.10;;;;;;;5.01;100.00;100981.88;5060468;28;20040;-78
2022/12/27 08:29:56;;;;;;;38.70;27.98;;;;;;;5.36;100.00;101027.25;5062798;28;20044;-79
2022/12/27 08:32:22;;;;;;;42.92;24.65;;;;;;;5.59;100.00;101074.78;5061650;28;20048;-75
2022/12/27 08:34:47;;;;;;;48.63;28.02;;;;;;;5.14;100.00;100964.97;5061826;28;20048;-78
2022/12/27 08:37:14;;;;;;;43.88;29.33;;;;;;;5.43;100.00;101021.41;5059202;28;20037;-77
2022/12/27 08:39:40;;;;;;;65.85;30.67;;;;;;;5.14;100.00;100945.03;5060148;28;20079;-76
2022/12/27 08:42:05;;;;;;;43.05;28.38;;;;;;;5.27;100.00;100964.53;5063904;28;20040;-77
2022/12/27 08:44:31;;;;;;;40.55;29.55;;;;;;;5.51;100.00;100987.78;5062888;28;20048;-75
2022/12/27 08:46:58;;;;;;;39.58;27.73;;;;;;;5.80;100.00;101008.56;5058408;28;20048;-78
2022/12/27 08:49:23;;;;;;;48.80;28.63;;;;;;;6.11;100.00;101026.88;5056924;28;20139;-80
2022/12/27 08:51:49;;;;;;;46.05;29.52;;;;;;;5.69;100.00;100972.72;5055840;28;20052;-77
2022/12/27 08:54:14;;;;;;;41.58;28.95;;;;;;;5.57;100.00;100911.59;5055365;28;20479;-76
2022/12/27 08:56:40;;;;;;;44.63;30.65;;;;;;;6.38;100.00;101038.03;5053486;28;20536;-76
2022/12/27 08:59:05;;;;;;;41.85;27.40;;;;;;;5.74;100.00;100896.47;5064552;28;20560;-77
2022/12/27 09:01:31;;;;;;;39.00;29.73;;;;;;;6.31;100.00;100974.44;5066487;28;20054;-76
2022/12/27 09:03:56;;;;;;;45.40;28.92;;;;;;;6.37;100.00;100995.44;5063038;28;20120;-78
2022/12/27 09:06:24;;;;;;;41.58;28.90;;;;;;;6.38;100.00;100984.16;5057414;28;20043;-79
2022/12/27 09:08:51;;;;;;;36.55;25.80;;;;;;;6.61;100.00;101021.28;5060337;28;20110;-81
2022/12/27 09:11:19;;;;;;;39.75;28.92;;;;;;;6.50;100.00;100981.00;5060033;28;20052;-80
2022/12/27 09:13:45;;;;;;;45.92;29.05;;;;;;;6.83;100.00;101008.75;5060356;28;20063;-80
2022/12/27 09:16:14;;;;;;;55.08;35.05;;;;;;;6.38;100.00;100903.38;5057691;28;20053;-81
2022/12/27 09:18:41;;;;;;;45.60;27.02;;;;;;;6.36;100.00;100865.06;5060742;28;20043;-81
2022/12/27 09:21:10;;;;;;;57.28;26.67;;;;;;;7.11;100.00;100985.09;5060049;28;20181;-78
2022/12/27 09:23:36;;;;;;;42.55;25.10;;;;;;;6.81;100.00;100932.19;5057231;28;20106;-83
2022/12/27 09:26:09;;;;;;;53.08;35.80;;;;;;;7.26;100.00;100991.50;5060619;28;20049;-77
2022/12/27 09:28:35;;;;;;;;;;;;;;;7.24;100.00;100985.41;5063566;28;20052;-77
2022/12/27 09:31:01;;;;;;;46.20;25.75;;;;;;;7.35;100.00;100976.97;5058465;28;19970;-79
2022/12/27 09:33:27;;;;;;;41.00;26.20;;;;;;;7.45;100.00;100979.78;5060900;28;20113;-78
2022/12/27 09:35:53;;;;;;;37.25;27.58;;;;;;;7.06;100.00;100882.34;5060775;28;20036;-78
2022/12/27 09:38:18;;;;;;;48.03;32.83;;;;;;;7.08;100.00;100880.66;5041303;28;20045;-79
2022/12/27 09:40:55;;;;;;;48.00;32.65;;;;;;;7.48;100.00;100925.00;5034059;28;20045;-78
2022/12/27 09:43:28;;;;;;;48.08;35.58;;;;;;;7.54;100.00;100918.19;5039110;28;20125;-80
2022/12/27 09:45:55;;;;;;;38.95;26.20;;;;;;;6.97;100.00;100815.19;5038719;28;20075;-80
2022/12/27 09:48:35;;;;;;;44.08;33.00;;;;;;;7.83;100.00;100950.09;5037124;28;20036;-79
2022/12/27 09:51:11;;;;;;;40.90;30.17;;;;;;;7.81;100.00;100959.63;5031383;28;20151;-78
2022/12/27 09:54:05;;;;;;;40.70;28.80;;;;;;;7.93;100.00;100919.78;5038832;28;20045;-75
2022/12/27 09:56:34;;;;;;;42.58;23.45;;;;;;;7.77;100.00;100866.41;5031674;28;20050;-78
2022/12/27 09:59:24;;;;;;;37.88;30.52;;;;;;;8.03;100.00;100944.41;5033381;28;23421;-77
2022/12/27 10:01:51;;;;;;;40.97;29.65;;;;;;;8.36;100.00;100923.22;5030151;28;20468;-77
2022/12/27 10:04:17;;;;;;;35.53;27.23;;;;;;;8.59;100.00;100925.34;5032922;28;20065;-76
2022/12/27 10:07:15;;;;;;;39.72;28.20;;;;;;;8.86;100.00;100924.91;5032757;28;20186;-78
2022/12/27 10:09:59;;;;;;;37.42;27.33;;;;;;;8.80;100.00;100917.84;5025448;28;20103;-80
2022/12/27 10:12:43;;;;;;;37.03;27.73;;;;;;;8.87;100.00;100911.84;5038994;28;20079;-77
2022/12/27 10:15:47;;;;;;;38.22;28.73;;;;;;;9.05;100.00;100908.59;5037845;28;20033;-79
2022/12/27 10:18:27;;;;;;;38.10;28.75;;;;;;;9.22;100.00;100903.59;5034961;28;20397;-77
2022/12/27 10:21:10;;;;;;;40.78;28.27;;;;;;;9.38;100.00;100901.19;5050587;28;20068;-81
2022/12/27 10:23:40;;;;;;;46.72;27.67;;;;;;;9.18;100.00;100870.41;5054077;28;20045;-82
2022/12/27 10:26:18;;;;;;;40.85;28.17;;;;;;;9.24;100.00;100840.78;5040967;28;20111;-81
2022/12/27 10:28:47;;;;;;;45.95;27.90;;;;;;;9.59;100.00;100911.06;5048788;28;20052;-79
2022/12/27 10:31:16;;;;;;;40.38;28.50;;;;;;;9.29;100.00;100837.38;5055125;28;20067;-78
2022/12/27 10:33:43;;;;;;;42.33;31.17;;;;;;;9.85;100.00;100893.00;5055480;28;20488;-79
2022/12/27 10:36:15;;;;;;;38.95;27.63;;;;;;;9.88;100.00;100895.66;5053879;28;20477;-78
2022/12/27 10:38:41;;;;;;;38.47;29.77;;;;;;;9.12;100.00;100783.03;5057003;28;20060;-82
2022/12/27 10:41:30;;;;;;;44.45;31.60;;;;;;;10.15;100.00;100879.31;5053925;28;20087;-78
2022/12/27 10:43:56;;;;;;;35.88;30.02;;;;;;;10.32;100.00;100874.25;5056391;28;20049;-78
2022/12/27 10:46:24;;;;;;;44.50;30.17;;;;;;;10.24;100.00;100828.72;5046159;28;20053;-77
2022/12/27 10:48:54;;;;;;;33.30;28.13;;;;;;;10.67;100.00;100842.16;5040084;28;20118;-79
2022/12/27 10:51:22;;;;;;;42.03;29.02;;;;;;;10.62;100.00;100820.25;5063577;28;20039;-80
2022/12/27 10:53:47;;;;;;;47.33;32.63;;;;;;;10.81;100.00;100848.38;5076993;28;20044;-79
2022/12/27 10:56:16;;;;;;;39.63;29.08;;;;;;;10.98;100.00;100848.50;5078523;28;20091;-80
2022/12/27 10:58:46;;;;;;;37.55;30.30;;;;;;;10.98;100.00;100816.97;5063951;28;20575;-80
2022/12/27 11:01:23;;;;;;;37.97;28.33;;;;;;;10.94;100.00;100752.19;5060532;28;20071;-79
2022/12/27 11:03:50;;;;;;;37.72;29.63;;;;;;;11.54;100.00;100847.84;5058076;28;20041;-82
2022/12/27 11:06:23;;;;;;;36.38;28.92;;;;;;;11.23;100.00;100830.19;5069831;28;20041;-80
2022/12/27 11:08:50;;;;;;;40.20;27.80;;;;;;;10.57;100.00;100663.66;5055477;28;20069;-78
2022/12/27 11:11:22;;;;;;;36.08;26.50;;;;;;;11.48;100.00;100846.94;5058047;28;20547;-79
2022/12/27 11:13:49;;;;;;;44.30;29.83;;;;;;;11.79;100.00;100863.66;5060310;28;20040;-80
2022/12/27 11:16:30;;;;;;;48.10;27.90;;;;;;;11.86;100.00;100865.44;5061705;28;20048;-78
2022/12/27 11:18:57;;;;;;;38.20;25.67;;;;;;;11.50;100.00;100835.56;5055753;28;20060;-77
2022/12/27 11:21:24;;;;;;;33.38;24.58;;;;;;;11.95;100.00;100848.84;5048310;28;20043;-78
2022/12/27 11:23:54;;;;;;;35.70;24.27;;;;;;;11.78;100.00;100860.16;5035526;28;20037;-76
2022/12/27 11:26:27;;;;;;;30.30;23.95;;;;;;;11.22;100.00;100752.28;5035693;28;20056;-74
2022/12/27 11:28:57;;;;;;;27.50;22.30;;;;;;;11.12;100.00;100768.00;5033137;28;20131;-77
2022/12/27 11:31:38;;;;;;;31.73;22.58;;;;;;;11.22;100.00;100774.16;5031984;28;20056;-78
2022/12/27 11:34:17;;;;;;;35.38;23.65;;;;;;;11.78;100.00;100869.81;5033785;28;20099;-78
2022/12/27 11:36:47;;;;;;;37.80;23.80;;;;;;;11.62;100.00;100882.03;5037215;28;20222;-76
2022/12/27 11:39:38;;;;;;;34.28;25.85;;;;;;;11.56;100.00;100882.00;5029367;28;20606;-78
2022/12/27 11:42:12;;;;;;;33.13;24.73;;;;;;;11.47;100.00;100858.31;5055399;28;20143;-77
2022/12/27 11:44:43;;;;;;;33.88;24.02;;;;;;;11.51;100.00;100854.81;5056735;28;20045;-77
2022/12/27 11:47:31;;;;;;;29.42;24.73;;;;;;;11.28;100.00;100831.97;5058591;28;20101;-73
2022/12/27 11:50:28;;;;;;;32.35;24.95;;;;;;;11.56;100.00;100876.75;5059582;28;20112;-75
2022/12/27 11:53:11;;;;;;;30.95;22.40;;;;;;;11.60;100.00;100871.50;5051038;28;20079;-76
2022/12/27 11:55:40;;;;;;;32.33;23.25;;;;;;;11.33;100.00;100909.06;5044304;28;20064;-76
2022/12/27 11:58:36;;;;;;;33.90;23.42;;;;;;;11.51;100.00;100900.38;5034857;28;20045;-76
2022/12/27 12:01:33;;;;;;;33.22;23.52;;;;;;;11.69;100.00;100896.94;5056637;28;20083;-76
2022/12/27 12:04:27;;;;;;;29.75;23.13;;;;;;;11.23;100.00;100872.22;5063654;28;20074;-75
2022/12/27 12:07:26;;;;;;;28.90;23.95;;;;;;;11.64;100.00;100916.22;5051562;28;20476;-79
2022/12/27 12:10:10;;;;;;;30.90;23.58;;;;;;;11.69;100.00;100909.22;5037310;28;20068;-76
2022/12/27 12:13:03;;;;;;;31.63;22.92;;;;;;;11.75;100.00;100907.50;5038869;28;20116;-76
2022/12/27 12:15:59;;;;;;;36.10;22.80;;;;;;;11.76;100.00;100896.09;5049188;28;20037;-77
2022/12/27 12:18:53;;;;;;;43.40;22.58;;;;;;;11.80;100.00;100889.97;5058097;28;20812;-76
2022/12/27 12:21:21;;;;;;;31.58;20.02;;;;;;;11.94;100.00;100902.28;5040708;28;20037;-76
2022/12/27 12:24:07;;;;;;;34.60;22.67;;;;;;;12.01;100.00;100897.06;5040760;28;20053;-75
2022/12/27 12:26:39;;;;;;;34.75;22.48;;;;;;;11.55;100.00;100835.56;5039971;28;20493;-76
2022/12/27 12:30:03;;;;;;;29.83;23.80;;;;;;;11.96;100.00;100913.69;5042829;28;20057;-75
2022/12/27 12:32:41;;;;;;;29.80;23.15;;;;;;;12.03;100.00;100910.19;4992052;28;20140;-76
2022/12/27 12:35:15;;;;;;;31.42;20.95;;;;;;;11.88;100.00;100928.59;4998075;28;20042;-79
2022/12/27 12:38:01;;;;;;;29.02;22.10;;;;;;;11.96;100.00;100929.47;5043239;28;20052;-77
2022/12/27 12:40:31;;;;;;;28.90;20.25;;;;;;;12.02;100.00;100917.22;5057113;28;20047;-77
2022/12/27 12:43:24;;;;;;;32.03;19.23;;;;;;;12.29;100.00;100919.88;5057899;28;20060;-75
2022/12/27 12:46:01;;;;;;;28.98;21.02;;;;;;;12.12;100.00;100914.59;5051007;28;20070;-76
2022/12/27 12:48:48;;;;;;;40.10;22.38;;;;;;;12.26;100.00;100931.28;5055171;28;20036;-75
2022/12/27 12:51:29;;;;;;;29.30;19.63;;;;;;;12.30;100.00;100929.56;5054529;28;20087;-77
2022/12/27 12:54:19;;;;;;;26.80;21.77;;;;;;;12.45;100.00;100933.09;5057685;28;20048;-76
2022/12/27 12:57:07;;;;;;;30.92;21.48;;;;;;;12.66;100.00;100936.56;5057281;28;20053;-76
2022/12/27 12:59:45;;;;;;;27.60;21.75;;;;;;;12.66;100.00;100939.22;5056314;28;20803;-76
2022/12/27 13:02:35;;;;;;;29.98;21.20;;;;;;;12.31;100.00;100937.44;5044279;28;20087;-78